sensor_id;sensor_type;location;lat;lon;timestamp;P1;durP1;ratioP1;P2;durP2;ratioP2
4939;SDS011;2485;49.326;7.214;2023-03-21T06:08:11;15.40;;;5.70;;
4939;SDS011;2485;49.326;7.214;2023-03-21T08:05:25;11.20;;;5.70;;
4939;SDS011;2485;49.326;7.214;2023-03-21T08:08:02;9.87;;;5.97;;
4939;SDS011;2485;49.326;7.214;2023-03-21T08:13:57;8.97;;;5.70;;
4939;SDS011;2485;49.326;7.214;2023-03-21T08:16:55;7.83;;;5.30;;
4939;SDS011;2485;49.326;7.214;2023-03-21T08:19:53;10.50;;;5.70;;
4939;SDS011;2485;49.326;7.214;2023-03-21T08:26:07;8.00;;;5.90;;
4939;SDS011;2485;49.326;7.214;2023-03-21T08:29:26;10.87;;;5.90;;
4939;SDS011;2485;49.326;7.214;2023-03-21T08:32:19;5.57;;;4.97;;
4939;SDS011;2485;49.326;7.214;2023-03-21T08:35:12;8.17;;;4.53;;
4939;SDS011;2485;49.326;7.214;2023-03-21T08:37:54;7.67;;;5.70;;
4939;SDS011;2485;49.326;7.214;2023-03-21T08:40:36;10.60;;;5.27;;
4939;SDS011;2485;49.326;7.214;2023-03-21T08:46:14;8.00;;;4.90;;
4939;SDS011;2485;49.326;7.214;2023-03-21T08:49:00;9.10;;;4.80;;
4939;SDS011;2485;49.326;7.214;2023-03-21T08:51:38;7.53;;;4.47;;
4939;SDS011;2485;49.326;7.214;2023-03-21T08:54:15;4.67;;;3.87;;
4939;SDS011;2485;49.326;7.214;2023-03-21T08:56:46;8.40;;;4.07;;
4939;SDS011;2485;49.326;7.214;2023-03-21T08:59:15;6.90;;;4.10;;
4939;SDS011;2485;49.326;7.214;2023-03-21T09:04:54;5.50;;;3.60;;
4939;SDS011;2485;49.326;7.214;2023-03-21T09:07:25;5.70;;;3.70;;
4939;SDS011;2485;49.326;7.214;2023-03-21T09:09:58;5.63;;;3.60;;
4939;SDS011;2485;49.326;7.214;2023-03-21T09:12:39;5.37;;;3.53;;
4939;SDS011;2485;49.326;7.214;2023-03-21T09:15:19;5.37;;;3.43;;
4939;SDS011;2485;49.326;7.214;2023-03-21T09:17:59;4.63;;;2.90;;
4939;SDS011;2485;49.326;7.214;2023-03-21T09:33:07;6.83;;;3.10;;
4939;SDS011;2485;49.326;7.214;2023-03-21T09:36:38;4.53;;;3.30;;
4939;SDS011;2485;49.326;7.214;2023-03-21T09:44:58;3.33;;;2.70;;
4939;SDS011;2485;49.326;7.214;2023-03-21T09:48:06;4.60;;;2.70;;
4939;SDS011;2485;49.326;7.214;2023-03-21T09:50:45;4.70;;;2.90;;
4939;SDS011;2485;49.326;7.214;2023-03-21T09:53:17;5.23;;;2.50;;
4939;SDS011;2485;49.326;7.214;2023-03-21T09:55:52;5.83;;;2.50;;
4939;SDS011;2485;49.326;7.214;2023-03-21T09:58:54;3.50;;;2.50;;
4939;SDS011;2485;49.326;7.214;2023-03-21T10:10:39;8.00;;;2.80;;
4939;SDS011;2485;49.326;7.214;2023-03-21T10:13:28;5.60;;;3.20;;
4939;SDS011;2485;49.326;7.214;2023-03-21T10:15:57;5.63;;;3.50;;
4939;SDS011;2485;49.326;7.214;2023-03-21T10:18:38;4.23;;;3.30;;
4939;SDS011;2485;49.326;7.214;2023-03-21T10:21:24;6.40;;;3.40;;
4939;SDS011;2485;49.326;7.214;2023-03-21T10:24:40;7.57;;;3.23;;
4939;SDS011;2485;49.326;7.214;2023-03-21T10:36:19;5.10;;;3.93;;
4939;SDS011;2485;49.326;7.214;2023-03-21T10:42:05;5.70;;;3.17;;
4939;SDS011;2485;49.326;7.214;2023-03-21T11:17:37;5.20;;;3.53;;
4939;SDS011;2485;49.326;7.214;2023-03-21T11:23:48;8.30;;;4.20;;
4939;SDS011;2485;49.326;7.214;2023-03-21T11:26:33;7.90;;;4.00;;
4939;SDS011;2485;49.326;7.214;2023-03-21T11:35:56;5.07;;;3.43;;
4939;SDS011;2485;49.326;7.214;2023-03-21T11:41:29;7.20;;;4.30;;
4939;SDS011;2485;49.326;7.214;2023-03-21T11:44:40;5.90;;;4.20;;
4939;SDS011;2485;49.326;7.214;2023-03-21T11:47:25;6.47;;;4.70;;
4939;SDS011;2485;49.326;7.214;2023-03-21T11:52:49;8.70;;;4.10;;
4939;SDS011;2485;49.326;7.214;2023-03-21T12:01:22;4.03;;;3.50;;
4939;SDS011;2485;49.326;7.214;2023-03-21T12:04:10;9.17;;;4.40;;
4939;SDS011;2485;49.326;7.214;2023-03-21T12:06:51;13.60;;;6.60;;
4939;SDS011;2485;49.326;7.214;2023-03-21T12:12:37;11.93;;;5.87;;
4939;SDS011;2485;49.326;7.214;2023-03-21T12:15:32;6.73;;;4.50;;
4939;SDS011;2485;49.326;7.214;2023-03-21T12:19:24;12.97;;;5.80;;
4939;SDS011;2485;49.326;7.214;2023-03-21T12:21:25;8.53;;;4.70;;
4939;SDS011;2485;49.326;7.214;2023-03-21T12:24:10;6.67;;;4.77;;
4939;SDS011;2485;49.326;7.214;2023-03-21T12:26:39;7.10;;;3.70;;
4939;SDS011;2485;49.326;7.214;2023-03-21T12:29:32;6.43;;;3.67;;
4939;SDS011;2485;49.326;7.214;2023-03-21T12:32:28;7.43;;;4.10;;
4939;SDS011;2485;49.326;7.214;2023-03-21T12:38:14;6.10;;;3.90;;
4939;SDS011;2485;49.326;7.214;2023-03-21T12:50:26;7.00;;;3.40;;
4939;SDS011;2485;49.326;7.214;2023-03-21T12:53:23;4.80;;;3.13;;
4939;SDS011;2485;49.326;7.214;2023-03-21T12:56:16;5.60;;;3.20;;
4939;SDS011;2485;49.326;7.214;2023-03-21T13:01:49;8.33;;;3.80;;
4939;SDS011;2485;49.326;7.214;2023-03-21T13:04:41;6.13;;;3.40;;
4939;SDS011;2485;49.326;7.214;2023-03-21T13:07:22;6.03;;;3.70;;
4939;SDS011;2485;49.326;7.214;2023-03-21T13:09:52;6.40;;;3.87;;
4939;SDS011;2485;49.326;7.214;2023-03-21T13:12:37;4.90;;;3.47;;
4939;SDS011;2485;49.326;7.214;2023-03-21T13:18:24;6.60;;;4.20;;
4939;SDS011;2485;49.326;7.214;2023-03-21T13:21:08;13.80;;;5.30;;
4939;SDS011;2485;49.326;7.214;2023-03-21T13:23:39;7.57;;;3.77;;
4939;SDS011;2485;49.326;7.214;2023-03-21T13:26:32;6.43;;;4.13;;
4939;SDS011;2485;49.326;7.214;2023-03-21T13:29:25;7.00;;;4.00;;
4939;SDS011;2485;49.326;7.214;2023-03-21T13:32:13;6.63;;;3.90;;
4939;SDS011;2485;49.326;7.214;2023-03-21T13:34:57;7.60;;;4.40;;
4939;SDS011;2485;49.326;7.214;2023-03-21T13:37:30;4.33;;;2.70;;
4939;SDS011;2485;49.326;7.214;2023-03-21T13:40:03;5.20;;;3.40;;
4939;SDS011;2485;49.326;7.214;2023-03-21T13:42:33;3.97;;;3.40;;
4939;SDS011;2485;49.326;7.214;2023-03-21T13:45:08;5.53;;;2.83;;
4939;SDS011;2485;49.326;7.214;2023-03-21T13:47:41;10.47;;;3.27;;
4939;SDS011;2485;49.326;7.214;2023-03-21T13:50:34;2.90;;;2.60;;
4939;SDS011;2485;49.326;7.214;2023-03-21T13:53:17;3.87;;;2.60;;
4939;SDS011;2485;49.326;7.214;2023-03-21T13:56:18;3.77;;;3.03;;
4939;SDS011;2485;49.326;7.214;2023-03-21T13:58:53;4.77;;;2.97;;
4939;SDS011;2485;49.326;7.214;2023-03-21T14:01:32;5.40;;;2.60;;
4939;SDS011;2485;49.326;7.214;2023-03-21T14:04:05;6.13;;;3.10;;
4939;SDS011;2485;49.326;7.214;2023-03-21T14:06:53;4.50;;;2.70;;
4939;SDS011;2485;49.326;7.214;2023-03-21T14:09:24;5.03;;;2.70;;
4939;SDS011;2485;49.326;7.214;2023-03-21T14:11:55;4.03;;;2.60;;
4939;SDS011;2485;49.326;7.214;2023-03-21T14:14:23;3.67;;;2.50;;
4939;SDS011;2485;49.326;7.214;2023-03-21T14:16:51;5.80;;;2.60;;
4939;SDS011;2485;49.326;7.214;2023-03-21T14:19:22;3.00;;;2.70;;
4939;SDS011;2485;49.326;7.214;2023-03-21T14:22:52;8.00;;;2.43;;
4939;SDS011;2485;49.326;7.214;2023-03-21T14:25:24;4.93;;;3.10;;
4939;SDS011;2485;49.326;7.214;2023-03-21T14:34:46;2.77;;;2.53;;
4939;SDS011;2485;49.326;7.214;2023-03-21T14:44:01;3.40;;;2.40;;
4939;SDS011;2485;49.326;7.214;2023-03-21T14:47:01;5.00;;;3.57;;
4939;SDS011;2485;49.326;7.214;2023-03-21T14:49:52;7.20;;;3.37;;
4939;SDS011;2485;49.326;7.214;2023-03-21T14:52:29;3.80;;;2.83;;
4939;SDS011;2485;49.326;7.214;2023-03-21T14:55:01;4.37;;;2.50;;
4939;SDS011;2485;49.326;7.214;2023-03-21T14:57:55;4.97;;;2.50;;
4939;SDS011;2485;49.326;7.214;2023-03-21T15:12:45;5.00;;;2.30;;
4939;SDS011;2485;49.326;7.214;2023-03-21T15:15:47;2.40;;;2.17;;
4939;SDS011;2485;49.326;7.214;2023-03-21T15:18:46;6.33;;;2.77;;
4939;SDS011;2485;49.326;7.214;2023-03-21T15:21:36;2.40;;;2.20;;
4939;SDS011;2485;49.326;7.214;2023-03-21T15:24:13;2.87;;;2.13;;
4939;SDS011;2485;49.326;7.214;2023-03-21T15:32:51;3.90;;;2.20;;
4939;SDS011;2485;49.326;7.214;2023-03-21T15:41:34;3.33;;;2.07;;
4939;SDS011;2485;49.326;7.214;2023-03-21T15:44:19;3.57;;;2.30;;
4939;SDS011;2485;49.326;7.214;2023-03-21T15:50:20;5.70;;;2.37;;
4939;SDS011;2485;49.326;7.214;2023-03-21T15:56:08;3.57;;;2.23;;
4939;SDS011;2485;49.326;7.214;2023-03-21T15:58:59;3.87;;;2.50;;
4939;SDS011;2485;49.326;7.214;2023-03-21T16:07:27;4.20;;;2.47;;
4939;SDS011;2485;49.326;7.214;2023-03-21T16:10:20;5.00;;;2.37;;
4939;SDS011;2485;49.326;7.214;2023-03-21T16:13:03;4.13;;;3.07;;
4939;SDS011;2485;49.326;7.214;2023-03-21T16:32:13;5.60;;;2.20;;
4939;SDS011;2485;49.326;7.214;2023-03-21T16:34:51;2.13;;;1.70;;
4939;SDS011;2485;49.326;7.214;2023-03-21T16:37:26;2.70;;;1.70;;
4939;SDS011;2485;49.326;7.214;2023-03-21T16:40:02;2.70;;;1.90;;
4939;SDS011;2485;49.326;7.214;2023-03-21T16:48:21;3.10;;;2.17;;
4939;SDS011;2485;49.326;7.214;2023-03-21T16:50:48;2.80;;;1.90;;
4939;SDS011;2485;49.326;7.214;2023-03-21T16:53:15;3.70;;;2.50;;
4939;SDS011;2485;49.326;7.214;2023-03-21T16:55:44;4.63;;;2.23;;
4939;SDS011;2485;49.326;7.214;2023-03-21T16:58:13;4.57;;;2.20;;
4939;SDS011;2485;49.326;7.214;2023-03-21T17:00:40;3.50;;;2.00;;
4939;SDS011;2485;49.326;7.214;2023-03-21T17:03:11;4.27;;;2.37;;
4939;SDS011;2485;49.326;7.214;2023-03-21T17:05:44;2.57;;;1.67;;
4939;SDS011;2485;49.326;7.214;2023-03-21T17:08:14;4.03;;;2.23;;
4939;SDS011;2485;49.326;7.214;2023-03-21T17:10:44;2.20;;;1.87;;
4939;SDS011;2485;49.326;7.214;2023-03-21T17:13:24;3.83;;;2.23;;
4939;SDS011;2485;49.326;7.214;2023-03-21T17:15:54;4.30;;;2.70;;
4939;SDS011;2485;49.326;7.214;2023-03-21T17:18:21;4.73;;;2.20;;
4939;SDS011;2485;49.326;7.214;2023-03-21T17:20:51;4.90;;;1.97;;
4939;SDS011;2485;49.326;7.214;2023-03-21T17:23:30;3.43;;;2.40;;
4939;SDS011;2485;49.326;7.214;2023-03-21T17:26:10;4.90;;;2.33;;
4939;SDS011;2485;49.326;7.214;2023-03-21T17:28:52;3.73;;;2.23;;
4939;SDS011;2485;49.326;7.214;2023-03-21T17:31:21;6.30;;;3.70;;
4939;SDS011;2485;49.326;7.214;2023-03-21T17:33:56;3.70;;;2.37;;
4939;SDS011;2485;49.326;7.214;2023-03-21T17:36:25;6.73;;;2.30;;
4939;SDS011;2485;49.326;7.214;2023-03-21T17:39:03;3.53;;;2.20;;
4939;SDS011;2485;49.326;7.214;2023-03-21T17:41:44;5.37;;;2.20;;
4939;SDS011;2485;49.326;7.214;2023-03-21T17:44:18;4.53;;;2.47;;
4939;SDS011;2485;49.326;7.214;2023-03-21T17:46:59;4.53;;;3.20;;
4939;SDS011;2485;49.326;7.214;2023-03-21T17:49:26;5.73;;;3.90;;
4939;SDS011;2485;49.326;7.214;2023-03-21T17:52:02;8.60;;;3.43;;
4939;SDS011;2485;49.326;7.214;2023-03-21T17:54:39;6.07;;;3.63;;
4939;SDS011;2485;49.326;7.214;2023-03-21T17:57:07;4.13;;;3.00;;
4939;SDS011;2485;49.326;7.214;2023-03-21T17:59:35;5.20;;;2.97;;
4939;SDS011;2485;49.326;7.214;2023-03-21T18:08:18;4.10;;;2.87;;
4939;SDS011;2485;49.326;7.214;2023-03-21T18:13:43;7.80;;;4.40;;
4939;SDS011;2485;49.326;7.214;2023-03-21T18:16:13;7.23;;;4.67;;
4939;SDS011;2485;49.326;7.214;2023-03-21T18:18:48;7.10;;;4.30;;
4939;SDS011;2485;49.326;7.214;2023-03-21T18:27:24;5.00;;;4.50;;
4939;SDS011;2485;49.326;7.214;2023-03-21T18:29:51;9.63;;;3.60;;
4939;SDS011;2485;49.326;7.214;2023-03-21T18:32:17;4.60;;;3.20;;
4939;SDS011;2485;49.326;7.214;2023-03-21T18:34:46;3.93;;;2.80;;
4939;SDS011;2485;49.326;7.214;2023-03-21T18:37:16;8.23;;;3.63;;
4939;SDS011;2485;49.326;7.214;2023-03-21T18:39:46;7.73;;;4.10;;
4939;SDS011;2485;49.326;7.214;2023-03-21T18:42:13;5.00;;;3.10;;
4939;SDS011;2485;49.326;7.214;2023-03-21T18:44:42;3.83;;;2.83;;
4939;SDS011;2485;49.326;7.214;2023-03-21T18:47:11;4.47;;;3.00;;
4939;SDS011;2485;49.326;7.214;2023-03-21T18:49:38;4.10;;;3.07;;
4939;SDS011;2485;49.326;7.214;2023-03-21T18:52:13;9.13;;;3.43;;
4939;SDS011;2485;49.326;7.214;2023-03-21T18:54:41;3.80;;;3.23;;
4939;SDS011;2485;49.326;7.214;2023-03-21T18:57:07;4.20;;;3.17;;
4939;SDS011;2485;49.326;7.214;2023-03-21T18:59:34;4.63;;;3.10;;
4939;SDS011;2485;49.326;7.214;2023-03-21T19:02:12;5.87;;;3.10;;
4939;SDS011;2485;49.326;7.214;2023-03-21T19:04:49;8.13;;;3.80;;
4939;SDS011;2485;49.326;7.214;2023-03-21T19:07:31;4.83;;;3.50;;
4939;SDS011;2485;49.326;7.214;2023-03-21T19:10:03;4.47;;;3.73;;
4939;SDS011;2485;49.326;7.214;2023-03-21T19:12:51;4.07;;;3.27;;
4939;SDS011;2485;49.326;7.214;2023-03-21T19:15:19;5.53;;;3.03;;
4939;SDS011;2485;49.326;7.214;2023-03-21T19:17:59;5.97;;;3.50;;
4939;SDS011;2485;49.326;7.214;2023-03-21T19:20:52;5.93;;;3.67;;
4939;SDS011;2485;49.326;7.214;2023-03-21T19:23:30;6.10;;;5.23;;
4939;SDS011;2485;49.326;7.214;2023-03-21T19:26:17;9.63;;;5.10;;
4939;SDS011;2485;49.326;7.214;2023-03-21T19:28:58;5.43;;;4.20;;
4939;SDS011;2485;49.326;7.214;2023-03-21T19:31:40;5.70;;;3.90;;
4939;SDS011;2485;49.326;7.214;2023-03-21T19:34:18;10.43;;;4.27;;
4939;SDS011;2485;49.326;7.214;2023-03-21T19:36:50;7.10;;;5.47;;
4939;SDS011;2485;49.326;7.214;2023-03-21T19:39:18;6.57;;;4.60;;
4939;SDS011;2485;49.326;7.214;2023-03-21T19:41:46;7.23;;;4.00;;
4939;SDS011;2485;49.326;7.214;2023-03-21T19:44:24;4.50;;;3.30;;
4939;SDS011;2485;49.326;7.214;2023-03-21T19:46:54;6.53;;;4.10;;
4939;SDS011;2485;49.326;7.214;2023-03-21T19:49:26;6.60;;;4.13;;
4939;SDS011;2485;49.326;7.214;2023-03-21T19:51:59;7.93;;;4.93;;
4939;SDS011;2485;49.326;7.214;2023-03-21T19:54:26;9.00;;;4.93;;
4939;SDS011;2485;49.326;7.214;2023-03-21T19:56:58;5.00;;;4.07;;
4939;SDS011;2485;49.326;7.214;2023-03-21T19:59:42;12.80;;;4.87;;
4939;SDS011;2485;49.326;7.214;2023-03-21T20:04:53;8.10;;;5.10;;
4939;SDS011;2485;49.326;7.214;2023-03-21T20:07:22;7.87;;;4.10;;
4939;SDS011;2485;49.326;7.214;2023-03-21T20:09:51;5.03;;;3.90;;
4939;SDS011;2485;49.326;7.214;2023-03-21T20:12:23;6.40;;;4.70;;
4939;SDS011;2485;49.326;7.214;2023-03-21T20:14:55;9.43;;;5.20;;
4939;SDS011;2485;49.326;7.214;2023-03-21T20:17:30;7.43;;;5.00;;
4939;SDS011;2485;49.326;7.214;2023-03-21T20:20:00;6.77;;;5.07;;
4939;SDS011;2485;49.326;7.214;2023-03-21T20:22:44;6.87;;;4.73;;
4939;SDS011;2485;49.326;7.214;2023-03-21T20:25:11;9.60;;;4.33;;
4939;SDS011;2485;49.326;7.214;2023-03-21T20:27:47;6.40;;;5.00;;
4939;SDS011;2485;49.326;7.214;2023-03-21T20:30:17;7.40;;;5.40;;
4939;SDS011;2485;49.326;7.214;2023-03-21T20:32:44;10.40;;;7.83;;
4939;SDS011;2485;49.326;7.214;2023-03-21T20:35:13;11.60;;;5.40;;
4939;SDS011;2485;49.326;7.214;2023-03-21T20:37:44;10.00;;;6.07;;
4939;SDS011;2485;49.326;7.214;2023-03-21T20:40:14;5.60;;;4.53;;
4939;SDS011;2485;49.326;7.214;2023-03-21T20:42:43;6.60;;;4.63;;
4939;SDS011;2485;49.326;7.214;2023-03-21T20:45:11;8.20;;;4.73;;
4939;SDS011;2485;49.326;7.214;2023-03-21T20:47:48;7.80;;;4.63;;
4939;SDS011;2485;49.326;7.214;2023-03-21T20:50:16;9.40;;;5.27;;
4939;SDS011;2485;49.326;7.214;2023-03-21T20:52:45;6.17;;;4.90;;
4939;SDS011;2485;49.326;7.214;2023-03-21T20:55:11;7.87;;;5.33;;
4939;SDS011;2485;49.326;7.214;2023-03-21T20:57:40;8.47;;;6.60;;
4939;SDS011;2485;49.326;7.214;2023-03-21T21:00:07;12.13;;;6.87;;
4939;SDS011;2485;49.326;7.214;2023-03-21T21:02:42;8.93;;;6.30;;
4939;SDS011;2485;49.326;7.214;2023-03-21T21:05:09;11.37;;;7.17;;
4939;SDS011;2485;49.326;7.214;2023-03-21T21:07:39;8.73;;;6.53;;
4939;SDS011;2485;49.326;7.214;2023-03-21T21:10:07;10.43;;;6.40;;
4939;SDS011;2485;49.326;7.214;2023-03-21T21:12:37;11.10;;;6.70;;
4939;SDS011;2485;49.326;7.214;2023-03-21T21:15:05;9.70;;;6.60;;
4939;SDS011;2485;49.326;7.214;2023-03-21T21:17:37;9.23;;;6.17;;
4939;SDS011;2485;49.326;7.214;2023-03-21T21:20:08;9.53;;;6.80;;
4939;SDS011;2485;49.326;7.214;2023-03-21T21:22:46;13.60;;;7.50;;
4939;SDS011;2485;49.326;7.214;2023-03-21T21:25:16;10.57;;;7.00;;
4939;SDS011;2485;49.326;7.214;2023-03-21T21:27:42;12.30;;;7.10;;
4939;SDS011;2485;49.326;7.214;2023-03-21T21:30:10;10.23;;;6.20;;
4939;SDS011;2485;49.326;7.214;2023-03-21T21:32:37;9.50;;;6.97;;
4939;SDS011;2485;49.326;7.214;2023-03-21T21:35:06;10.17;;;7.20;;
4939;SDS011;2485;49.326;7.214;2023-03-21T21:37:34;12.80;;;8.07;;
4939;SDS011;2485;49.326;7.214;2023-03-21T21:40:02;7.83;;;6.57;;
4939;SDS011;2485;49.326;7.214;2023-03-21T21:42:37;9.43;;;6.20;;
4939;SDS011;2485;49.326;7.214;2023-03-21T21:45:04;11.83;;;6.33;;
4939;SDS011;2485;49.326;7.214;2023-03-21T21:47:32;19.13;;;7.20;;
4939;SDS011;2485;49.326;7.214;2023-03-21T21:49:59;9.70;;;6.83;;
4939;SDS011;2485;49.326;7.214;2023-03-21T21:52:34;8.73;;;5.97;;
4939;SDS011;2485;49.326;7.214;2023-03-21T21:55:04;10.67;;;5.93;;
4939;SDS011;2485;49.326;7.214;2023-03-21T21:57:36;10.07;;;6.33;;
4939;SDS011;2485;49.326;7.214;2023-03-21T22:00:09;9.87;;;5.50;;
4939;SDS011;2485;49.326;7.214;2023-03-21T22:02:37;10.33;;;6.90;;
4939;SDS011;2485;49.326;7.214;2023-03-21T22:05:04;8.93;;;5.93;;
4939;SDS011;2485;49.326;7.214;2023-03-21T22:07:31;8.50;;;5.53;;
4939;SDS011;2485;49.326;7.214;2023-03-21T22:09:58;9.17;;;5.70;;
4939;SDS011;2485;49.326;7.214;2023-03-21T22:12:26;9.73;;;4.90;;
4939;SDS011;2485;49.326;7.214;2023-03-21T22:14:53;9.67;;;6.20;;
4939;SDS011;2485;49.326;7.214;2023-03-21T22:17:19;7.73;;;4.57;;
4939;SDS011;2485;49.326;7.214;2023-03-21T22:19:46;10.07;;;5.30;;
4939;SDS011;2485;49.326;7.214;2023-03-21T22:22:19;8.40;;;4.93;;
4939;SDS011;2485;49.326;7.214;2023-03-21T22:24:45;6.33;;;4.93;;
4939;SDS011;2485;49.326;7.214;2023-03-21T22:27:14;6.97;;;4.90;;
4939;SDS011;2485;49.326;7.214;2023-03-21T22:29:42;6.20;;;4.33;;
4939;SDS011;2485;49.326;7.214;2023-03-21T22:32:09;7.20;;;5.00;;
4939;SDS011;2485;49.326;7.214;2023-03-21T22:34:35;7.60;;;5.60;;
4939;SDS011;2485;49.326;7.214;2023-03-21T22:37:05;8.03;;;5.50;;
4939;SDS011;2485;49.326;7.214;2023-03-21T22:39:31;7.93;;;5.37;;
4939;SDS011;2485;49.326;7.214;2023-03-21T22:41:58;9.00;;;5.03;;
4939;SDS011;2485;49.326;7.214;2023-03-21T22:44:27;9.23;;;4.20;;
4939;SDS011;2485;49.326;7.214;2023-03-21T22:47:00;6.63;;;4.93;;
4939;SDS011;2485;49.326;7.214;2023-03-21T22:49:27;8.00;;;5.20;;
4939;SDS011;2485;49.326;7.214;2023-03-21T22:51:57;9.47;;;5.17;;
4939;SDS011;2485;49.326;7.214;2023-03-21T22:54:24;11.40;;;4.97;;
4939;SDS011;2485;49.326;7.214;2023-03-21T22:56:50;6.17;;;4.30;;
4939;SDS011;2485;49.326;7.214;2023-03-21T22:59:21;11.03;;;6.47;;
4939;SDS011;2485;49.326;7.214;2023-03-21T23:01:48;7.20;;;5.13;;
4939;SDS011;2485;49.326;7.214;2023-03-21T23:04:16;7.77;;;4.50;;
4939;SDS011;2485;49.326;7.214;2023-03-21T23:06:43;7.13;;;5.00;;
4939;SDS011;2485;49.326;7.214;2023-03-21T23:09:10;6.73;;;4.47;;
4939;SDS011;2485;49.326;7.214;2023-03-21T23:11:37;7.33;;;5.07;;
4939;SDS011;2485;49.326;7.214;2023-03-21T23:14:04;7.77;;;5.03;;
4939;SDS011;2485;49.326;7.214;2023-03-21T23:16:31;8.40;;;5.17;;
4939;SDS011;2485;49.326;7.214;2023-03-21T23:18:59;6.03;;;4.77;;
4939;SDS011;2485;49.326;7.214;2023-03-21T23:21:27;6.93;;;4.83;;
4939;SDS011;2485;49.326;7.214;2023-03-21T23:23:58;5.70;;;4.70;;
4939;SDS011;2485;49.326;7.214;2023-03-21T23:26:27;7.13;;;4.90;;
4939;SDS011;2485;49.326;7.214;2023-03-21T23:28:54;13.13;;;4.50;;
4939;SDS011;2485;49.326;7.214;2023-03-21T23:31:22;8.07;;;4.73;;
4939;SDS011;2485;49.326;7.214;2023-03-21T23:34:10;8.87;;;5.90;;
4939;SDS011;2485;49.326;7.214;2023-03-21T23:36:56;6.60;;;4.77;;
4939;SDS011;2485;49.326;7.214;2023-03-21T23:39:23;8.60;;;5.00;;
4939;SDS011;2485;49.326;7.214;2023-03-21T23:41:56;7.63;;;5.13;;
4939;SDS011;2485;49.326;7.214;2023-03-21T23:44:27;8.40;;;4.60;;
4939;SDS011;2485;49.326;7.214;2023-03-21T23:46:54;11.07;;;4.83;;
4939;SDS011;2485;49.326;7.214;2023-03-21T23:49:20;9.90;;;5.20;;
4939;SDS011;2485;49.326;7.214;2023-03-21T23:51:49;9.73;;;5.63;;
4939;SDS011;2485;49.326;7.214;2023-03-21T23:54:17;5.73;;;4.80;;
4939;SDS011;2485;49.326;7.214;2023-03-21T23:56:55;8.40;;;5.03;;
4939;SDS011;2485;49.326;7.214;2023-03-21T23:59:24;9.53;;;5.30;;
